Darrouzett, Texas
Current Conditions -  °F | °C
As of 9:55 PM on Wednesday 22 Oct 2014 (Local Time) from KPYX Reporting Station
Overcast Overcast  
Wind Chill: 62°   Ceiling: 1200
Heat Index: 62°   Visibility: 10mi
Dew Point: 58°   Wind: 17mph
Humidity: 87%   Direction: 170°S
Pressure: 30.09"   Gusts: NA
Location:  36.45°N, 100.32°W
Report Text: KPYX 230255Z AUTO 17015KT 10SM OVC012 17/15 A3009 RMK AO2 T01680147
Loading
Personal Weather Stations






























Interactive Weather Map
Tropical Storm Tracking
New forecast layout! Learn more

10-Day Weather Forecast

Advertisements
Track Severe Weather on mobile